sensor_id;sensor_type;location;lat;lon;timestamp;temperature;humidity
37412;DHT22;23278;52.110;6.050;2024-03-02T00:01:14;8.80;81.80
37412;DHT22;23278;52.110;6.050;2024-03-02T00:03:42;8.80;81.80
37412;DHT22;23278;52.110;6.050;2024-03-02T00:06:10;8.80;81.90
37412;DHT22;23278;52.110;6.050;2024-03-02T00:08:36;8.80;82.00
37412;DHT22;23278;52.110;6.050;2024-03-02T00:11:02;8.80;82.20
37412;DHT22;23278;52.110;6.050;2024-03-02T00:13:29;8.80;82.30
37412;DHT22;23278;52.110;6.050;2024-03-02T00:15:56;8.80;82.40
37412;DHT22;23278;52.110;6.050;2024-03-02T00:18:33;8.80;82.30
37412;DHT22;23278;52.110;6.050;2024-03-02T00:21:00;8.80;82.50
37412;DHT22;23278;52.110;6.050;2024-03-02T00:23:30;8.80;82.50
37412;DHT22;23278;52.110;6.050;2024-03-02T00:25:57;8.80;82.50
37412;DHT22;23278;52.110;6.050;2024-03-02T00:28:25;8.80;82.50
37412;DHT22;23278;52.110;6.050;2024-03-02T00:31:01;8.80;82.60
37412;DHT22;23278;52.110;6.050;2024-03-02T00:33:33;8.80;82.80
37412;DHT22;23278;52.110;6.050;2024-03-02T00:35:59;8.70;82.90
37412;DHT22;23278;52.110;6.050;2024-03-02T00:38:27;8.70;83.10
37412;DHT22;23278;52.110;6.050;2024-03-02T00:40:54;8.70;83.30
37412;DHT22;23278;52.110;6.050;2024-03-02T00:46:04;8.70;83.30
37412;DHT22;23278;52.110;6.050;2024-03-02T00:48:30;8.90;83.00
37412;DHT22;23278;52.110;6.050;2024-03-02T00:50:57;9.10;82.50
37412;DHT22;23278;52.110;6.050;2024-03-02T00:53:25;9.10;82.30
37412;DHT22;23278;52.110;6.050;2024-03-02T00:55:52;9.20;82.00
37412;DHT22;23278;52.110;6.050;2024-03-02T00:58:17;9.30;81.80
37412;DHT22;23278;52.110;6.050;2024-03-02T01:00:43;9.40;81.60
37412;DHT22;23278;52.110;6.050;2024-03-02T01:03:09;9.50;81.30
37412;DHT22;23278;52.110;6.050;2024-03-02T01:05:36;9.50;81.00
37412;DHT22;23278;52.110;6.050;2024-03-02T01:08:02;9.50;80.70
37412;DHT22;23278;52.110;6.050;2024-03-02T01:10:28;9.60;80.80
37412;DHT22;23278;52.110;6.050;2024-03-02T01:12:54;9.60;80.80
37412;DHT22;23278;52.110;6.050;2024-03-02T01:15:20;9.60;80.80
37412;DHT22;23278;52.110;6.050;2024-03-02T01:17:46;9.60;80.60
37412;DHT22;23278;52.110;6.050;2024-03-02T01:20:12;9.60;80.50
37412;DHT22;23278;52.110;6.050;2024-03-02T01:22:38;9.60;80.50
37412;DHT22;23278;52.110;6.050;2024-03-02T01:25:04;9.70;80.40
37412;DHT22;23278;52.110;6.050;2024-03-02T01:27:30;9.70;80.40
37412;DHT22;23278;52.110;6.050;2024-03-02T01:29:56;9.70;80.40
37412;DHT22;23278;52.110;6.050;2024-03-02T01:32:22;9.70;80.30
37412;DHT22;23278;52.110;6.050;2024-03-02T01:34:48;9.70;80.30
37412;DHT22;23278;52.110;6.050;2024-03-02T01:37:14;9.70;80.40
37412;DHT22;23278;52.110;6.050;2024-03-02T01:39:40;9.70;80.50
37412;DHT22;23278;52.110;6.050;2024-03-02T01:42:06;9.80;80.40
37412;DHT22;23278;52.110;6.050;2024-03-02T01:44:32;9.80;80.30
37412;DHT22;23278;52.110;6.050;2024-03-02T01:46:58;9.80;80.40
37412;DHT22;23278;52.110;6.050;2024-03-02T01:49:24;9.80;80.40
37412;DHT22;23278;52.110;6.050;2024-03-02T01:51:50;9.80;80.40
37412;DHT22;23278;52.110;6.050;2024-03-02T01:54:16;9.80;80.30
37412;DHT22;23278;52.110;6.050;2024-03-02T01:56:42;9.90;80.50
37412;DHT22;23278;52.110;6.050;2024-03-02T01:59:08;9.80;80.60
37412;DHT22;23278;52.110;6.050;2024-03-02T02:01:34;9.80;80.90
37412;DHT22;23278;52.110;6.050;2024-03-02T02:04:00;9.90;81.10
37412;DHT22;23278;52.110;6.050;2024-03-02T02:06:26;9.80;81.20
37412;DHT22;23278;52.110;6.050;2024-03-02T02:08:52;9.80;81.60
37412;DHT22;23278;52.110;6.050;2024-03-02T02:11:18;9.80;82.10
37412;DHT22;23278;52.110;6.050;2024-03-02T02:13:44;9.80;82.40
37412;DHT22;23278;52.110;6.050;2024-03-02T02:16:10;9.80;82.80
37412;DHT22;23278;52.110;6.050;2024-03-02T02:18:36;9.70;83.20
37412;DHT22;23278;52.110;6.050;2024-03-02T02:21:02;9.70;83.60
37412;DHT22;23278;52.110;6.050;2024-03-02T02:23:30;9.70;84.00
37412;DHT22;23278;52.110;6.050;2024-03-02T02:25:56;9.70;84.20
37412;DHT22;23278;52.110;6.050;2024-03-02T02:28:21;9.60;84.40
37412;DHT22;23278;52.110;6.050;2024-03-02T02:30:47;9.60;84.60
37412;DHT22;23278;52.110;6.050;2024-03-02T02:33:13;9.60;84.80
37412;DHT22;23278;52.110;6.050;2024-03-02T02:35:39;9.60;85.10
37412;DHT22;23278;52.110;6.050;2024-03-02T02:38:05;9.60;85.20
37412;DHT22;23278;52.110;6.050;2024-03-02T02:40:32;9.60;85.40
37412;DHT22;23278;52.110;6.050;2024-03-02T02:42:58;9.60;85.50
37412;DHT22;23278;52.110;6.050;2024-03-02T02:45:25;9.60;85.60
37412;DHT22;23278;52.110;6.050;2024-03-02T02:47:50;9.60;85.70
37412;DHT22;23278;52.110;6.050;2024-03-02T02:50:17;9.60;85.80
37412;DHT22;23278;52.110;6.050;2024-03-02T02:52:43;9.50;85.90
37412;DHT22;23278;52.110;6.050;2024-03-02T02:55:13;9.60;85.90
37412;DHT22;23278;52.110;6.050;2024-03-02T02:57:40;9.50;85.80
37412;DHT22;23278;52.110;6.050;2024-03-02T03:00:09;9.50;85.80
37412;DHT22;23278;52.110;6.050;2024-03-02T03:02:37;9.50;85.80
37412;DHT22;23278;52.110;6.050;2024-03-02T03:05:04;9.50;86.00
37412;DHT22;23278;52.110;6.050;2024-03-02T03:07:32;9.50;86.10
37412;DHT22;23278;52.110;6.050;2024-03-02T03:09:59;9.50;86.20
37412;DHT22;23278;52.110;6.050;2024-03-02T03:12:26;9.50;86.40
37412;DHT22;23278;52.110;6.050;2024-03-02T03:14:52;9.50;86.60
37412;DHT22;23278;52.110;6.050;2024-03-02T03:17:18;9.40;86.80
37412;DHT22;23278;52.110;6.050;2024-03-02T03:19:43;9.50;87.00
37412;DHT22;23278;52.110;6.050;2024-03-02T03:22:09;9.40;87.60
37412;DHT22;23278;52.110;6.050;2024-03-02T03:24:35;9.30;88.00
37412;DHT22;23278;52.110;6.050;2024-03-02T03:27:01;9.30;88.60
37412;DHT22;23278;52.110;6.050;2024-03-02T03:29:27;9.20;89.10
37412;DHT22;23278;52.110;6.050;2024-03-02T03:31:53;9.20;89.40
37412;DHT22;23278;52.110;6.050;2024-03-02T03:34:18;9.20;89.40
37412;DHT22;23278;52.110;6.050;2024-03-02T03:36:44;9.20;89.60
37412;DHT22;23278;52.110;6.050;2024-03-02T03:39:10;9.10;89.60
37412;DHT22;23278;52.110;6.050;2024-03-02T03:41:36;9.10;89.80
37412;DHT22;23278;52.110;6.050;2024-03-02T03:44:03;9.10;89.90
37412;DHT22;23278;52.110;6.050;2024-03-02T03:46:30;9.00;89.90
37412;DHT22;23278;52.110;6.050;2024-03-02T03:48:56;9.00;90.10
37412;DHT22;23278;52.110;6.050;2024-03-02T03:51:21;8.90;90.20
37412;DHT22;23278;52.110;6.050;2024-03-02T03:53:48;8.90;90.20
37412;DHT22;23278;52.110;6.050;2024-03-02T03:56:14;8.90;90.20
37412;DHT22;23278;52.110;6.050;2024-03-02T03:58:40;8.90;90.30
37412;DHT22;23278;52.110;6.050;2024-03-02T04:01:06;8.90;90.40
37412;DHT22;23278;52.110;6.050;2024-03-02T04:03:32;8.80;90.40
37412;DHT22;23278;52.110;6.050;2024-03-02T04:05:57;8.80;90.50
37412;DHT22;23278;52.110;6.050;2024-03-02T04:08:26;8.80;90.60
37412;DHT22;23278;52.110;6.050;2024-03-02T04:10:52;8.80;90.70
37412;DHT22;23278;52.110;6.050;2024-03-02T04:13:18;8.80;90.80
37412;DHT22;23278;52.110;6.050;2024-03-02T04:15:44;8.80;91.00
37412;DHT22;23278;52.110;6.050;2024-03-02T04:18:10;8.70;91.20
37412;DHT22;23278;52.110;6.050;2024-03-02T04:20:36;8.70;91.50
37412;DHT22;23278;52.110;6.050;2024-03-02T04:23:02;8.60;91.60
37412;DHT22;23278;52.110;6.050;2024-03-02T04:25:28;8.70;91.70
37412;DHT22;23278;52.110;6.050;2024-03-02T04:27:53;8.60;91.90
37412;DHT22;23278;52.110;6.050;2024-03-02T04:30:19;8.60;92.00
37412;DHT22;23278;52.110;6.050;2024-03-02T04:32:45;8.60;92.10
37412;DHT22;23278;52.110;6.050;2024-03-02T04:35:14;8.60;92.30
37412;DHT22;23278;52.110;6.050;2024-03-02T04:37:40;8.60;92.40
37412;DHT22;23278;52.110;6.050;2024-03-02T04:40:06;8.60;92.40
37412;DHT22;23278;52.110;6.050;2024-03-02T04:42:36;8.60;92.50
37412;DHT22;23278;52.110;6.050;2024-03-02T04:45:02;8.60;92.50
37412;DHT22;23278;52.110;6.050;2024-03-02T04:47:28;8.60;92.60
37412;DHT22;23278;52.110;6.050;2024-03-02T04:49:54;8.60;92.60
37412;DHT22;23278;52.110;6.050;2024-03-02T04:52:20;8.50;92.70
37412;DHT22;23278;52.110;6.050;2024-03-02T04:54:46;8.50;92.80
37412;DHT22;23278;52.110;6.050;2024-03-02T04:57:30;8.50;92.90
37412;DHT22;23278;52.110;6.050;2024-03-02T04:59:56;8.50;92.80
37412;DHT22;23278;52.110;6.050;2024-03-02T05:02:22;8.60;92.90
37412;DHT22;23278;52.110;6.050;2024-03-02T05:04:48;8.50;93.00
37412;DHT22;23278;52.110;6.050;2024-03-02T05:07:14;8.40;93.20
37412;DHT22;23278;52.110;6.050;2024-03-02T05:09:40;8.30;93.40
37412;DHT22;23278;52.110;6.050;2024-03-02T05:12:06;8.20;93.60
37412;DHT22;23278;52.110;6.050;2024-03-02T05:15:01;8.10;93.80
37412;DHT22;23278;52.110;6.050;2024-03-02T05:17:29;8.00;94.20
37412;DHT22;23278;52.110;6.050;2024-03-02T05:19:54;7.90;94.50
37412;DHT22;23278;52.110;6.050;2024-03-02T05:22:20;7.80;94.60
37412;DHT22;23278;52.110;6.050;2024-03-02T05:24:46;7.80;94.90
37412;DHT22;23278;52.110;6.050;2024-03-02T05:27:12;7.80;95.00
37412;DHT22;23278;52.110;6.050;2024-03-02T05:29:38;7.70;95.20
37412;DHT22;23278;52.110;6.050;2024-03-02T05:32:04;7.70;95.30
37412;DHT22;23278;52.110;6.050;2024-03-02T05:34:30;7.60;95.50
37412;DHT22;23278;52.110;6.050;2024-03-02T05:36:59;7.60;96.00
37412;DHT22;23278;52.110;6.050;2024-03-02T05:39:25;7.70;96.20
37412;DHT22;23278;52.110;6.050;2024-03-02T05:41:51;7.70;96.10
37412;DHT22;23278;52.110;6.050;2024-03-02T05:44:17;7.60;96.30
37412;DHT22;23278;52.110;6.050;2024-03-02T05:46:44;7.60;96.30
37412;DHT22;23278;52.110;6.050;2024-03-02T05:49:10;7.60;96.60
37412;DHT22;23278;52.110;6.050;2024-03-02T05:51:36;7.50;96.80
37412;DHT22;23278;52.110;6.050;2024-03-02T05:54:02;7.50;97.10
37412;DHT22;23278;52.110;6.050;2024-03-02T05:56:28;7.50;97.10
37412;DHT22;23278;52.110;6.050;2024-03-02T05:58:54;7.40;97.20
37412;DHT22;23278;52.110;6.050;2024-03-02T06:01:48;7.40;97.60
37412;DHT22;23278;52.110;6.050;2024-03-02T06:04:16;7.40;97.70
37412;DHT22;23278;52.110;6.050;2024-03-02T06:06:42;7.40;97.80
37412;DHT22;23278;52.110;6.050;2024-03-02T06:09:08;7.30;98.10
37412;DHT22;23278;52.110;6.050;2024-03-02T06:11:35;7.30;98.10
37412;DHT22;23278;52.110;6.050;2024-03-02T06:14:02;7.20;98.10
37412;DHT22;23278;52.110;6.050;2024-03-02T06:16:28;7.20;98.30
37412;DHT22;23278;52.110;6.050;2024-03-02T06:18:57;7.10;98.50
37412;DHT22;23278;52.110;6.050;2024-03-02T06:21:24;7.00;98.60
37412;DHT22;23278;52.110;6.050;2024-03-02T06:23:50;6.90;98.80
37412;DHT22;23278;52.110;6.050;2024-03-02T06:26:16;6.90;99.10
37412;DHT22;23278;52.110;6.050;2024-03-02T06:28:42;6.80;99.10
37412;DHT22;23278;52.110;6.050;2024-03-02T06:31:08;6.70;99.20
37412;DHT22;23278;52.110;6.050;2024-03-02T06:33:34;6.70;99.50
37412;DHT22;23278;52.110;6.050;2024-03-02T06:36:00;6.70;99.70
37412;DHT22;23278;52.110;6.050;2024-03-02T06:38:26;6.60;99.70
37412;DHT22;23278;52.110;6.050;2024-03-02T06:40:55;6.60;99.70
37412;DHT22;23278;52.110;6.050;2024-03-02T06:43:21;6.60;99.80
37412;DHT22;23278;52.110;6.050;2024-03-02T06:45:51;6.60;99.90
37412;DHT22;23278;52.110;6.050;2024-03-02T06:48:20;6.60;99.90
37412;DHT22;23278;52.110;6.050;2024-03-02T06:50:46;6.70;99.90
37412;DHT22;23278;52.110;6.050;2024-03-02T06:53:13;6.80;99.70
37412;DHT22;23278;52.110;6.050;2024-03-02T06:55:39;6.70;99.70
37412;DHT22;23278;52.110;6.050;2024-03-02T06:58:08;6.70;99.80
37412;DHT22;23278;52.110;6.050;2024-03-02T07:00:34;6.70;99.80
37412;DHT22;23278;52.110;6.050;2024-03-02T07:03:00;6.70;99.80
37412;DHT22;23278;52.110;6.050;2024-03-02T07:05:26;6.70;99.90
37412;DHT22;23278;52.110;6.050;2024-03-02T07:07:52;6.80;99.90
37412;DHT22;23278;52.110;6.050;2024-03-02T07:10:18;6.80;99.90
37412;DHT22;23278;52.110;6.050;2024-03-02T07:12:44;6.90;99.90
37412;DHT22;23278;52.110;6.050;2024-03-02T07:15:10;7.00;99.80
37412;DHT22;23278;52.110;6.050;2024-03-02T07:18:08;7.00;99.80
37412;DHT22;23278;52.110;6.050;2024-03-02T07:20:34;7.00;99.80
37412;DHT22;23278;52.110;6.050;2024-03-02T07:23:00;7.00;99.90
37412;DHT22;23278;52.110;6.050;2024-03-02T07:25:26;7.00;99.90
37412;DHT22;23278;52.110;6.050;2024-03-02T07:27:52;7.00;99.90
37412;DHT22;23278;52.110;6.050;2024-03-02T07:30:18;7.00;99.90
37412;DHT22;23278;52.110;6.050;2024-03-02T07:32:44;7.00;99.90
37412;DHT22;23278;52.110;6.050;2024-03-02T07:35:14;7.00;99.90
37412;DHT22;23278;52.110;6.050;2024-03-02T07:37:41;7.00;99.90
37412;DHT22;23278;52.110;6.050;2024-03-02T07:40:08;7.10;99.90
37412;DHT22;23278;52.110;6.050;2024-03-02T07:42:38;7.10;99.90
37412;DHT22;23278;52.110;6.050;2024-03-02T07:45:05;7.20;99.90
37412;DHT22;23278;52.110;6.050;2024-03-02T07:47:33;7.40;99.90
37412;DHT22;23278;52.110;6.050;2024-03-02T07:49:59;7.40;99.90
37412;DHT22;23278;52.110;6.050;2024-03-02T07:52:25;7.50;99.90
37412;DHT22;23278;52.110;6.050;2024-03-02T07:54:51;7.60;99.60
37412;DHT22;23278;52.110;6.050;2024-03-02T07:57:17;7.70;99.40
37412;DHT22;23278;52.110;6.050;2024-03-02T07:59:43;7.80;99.20
37412;DHT22;23278;52.110;6.050;2024-03-02T08:02:09;7.90;98.90
37412;DHT22;23278;52.110;6.050;2024-03-02T08:04:35;8.00;99.00
37412;DHT22;23278;52.110;6.050;2024-03-02T08:07:02;8.10;98.50
37412;DHT22;23278;52.110;6.050;2024-03-02T08:09:28;8.20;98.40
37412;DHT22;23278;52.110;6.050;2024-03-02T08:11:54;8.40;98.20
37412;DHT22;23278;52.110;6.050;2024-03-02T08:14:20;8.60;97.80
37412;DHT22;23278;52.110;6.050;2024-03-02T08:16:46;8.70;97.50
37412;DHT22;23278;52.110;6.050;2024-03-02T08:19:12;8.90;96.90
37412;DHT22;23278;52.110;6.050;2024-03-02T08:21:38;9.20;96.20
37412;DHT22;23278;52.110;6.050;2024-03-02T08:24:04;9.40;96.00
37412;DHT22;23278;52.110;6.050;2024-03-02T08:26:30;9.60;95.50
37412;DHT22;23278;52.110;6.050;2024-03-02T08:29:00;9.90;95.10
37412;DHT22;23278;52.110;6.050;2024-03-02T08:31:27;10.20;94.70
37412;DHT22;23278;52.110;6.050;2024-03-02T08:33:53;10.50;92.80
37412;DHT22;23278;52.110;6.050;2024-03-02T08:36:20;10.70;92.20
37412;DHT22;23278;52.110;6.050;2024-03-02T08:38:51;10.80;91.70
37412;DHT22;23278;52.110;6.050;2024-03-02T08:41:17;11.10;91.20
37412;DHT22;23278;52.110;6.050;2024-03-02T08:43:44;11.30;90.20
37412;DHT22;23278;52.110;6.050;2024-03-02T08:46:10;11.50;88.90
37412;DHT22;23278;52.110;6.050;2024-03-02T08:48:36;11.60;88.60
37412;DHT22;23278;52.110;6.050;2024-03-02T08:51:02;11.80;86.30
37412;DHT22;23278;52.110;6.050;2024-03-02T08:53:30;12.00;85.00
37412;DHT22;23278;52.110;6.050;2024-03-02T08:55:56;12.30;83.80
37412;DHT22;23278;52.110;6.050;2024-03-02T08:58:22;12.50;83.10
37412;DHT22;23278;52.110;6.050;2024-03-02T09:00:48;12.70;81.00
37412;DHT22;23278;52.110;6.050;2024-03-02T09:03:14;12.90;79.30
37412;DHT22;23278;52.110;6.050;2024-03-02T09:05:40;13.10;77.10
37412;DHT22;23278;52.110;6.050;2024-03-02T09:08:06;13.30;76.00
37412;DHT22;23278;52.110;6.050;2024-03-02T09:10:33;13.60;74.20
37412;DHT22;23278;52.110;6.050;2024-03-02T09:12:59;13.70;72.60
37412;DHT22;23278;52.110;6.050;2024-03-02T09:15:28;13.80;71.30
37412;DHT22;23278;52.110;6.050;2024-03-02T09:17:54;13.90;70.50
37412;DHT22;23278;52.110;6.050;2024-03-02T09:20:19;14.10;70.30
37412;DHT22;23278;52.110;6.050;2024-03-02T09:22:45;14.40;69.50
37412;DHT22;23278;52.110;6.050;2024-03-02T09:25:13;14.50;67.50
37412;DHT22;23278;52.110;6.050;2024-03-02T09:27:39;14.80;67.80
37412;DHT22;23278;52.110;6.050;2024-03-02T09:30:08;15.10;65.80
37412;DHT22;23278;52.110;6.050;2024-03-02T09:32:36;15.30;65.00
37412;DHT22;23278;52.110;6.050;2024-03-02T09:35:02;15.50;63.70
37412;DHT22;23278;52.110;6.050;2024-03-02T09:37:28;15.70;63.00
37412;DHT22;23278;52.110;6.050;2024-03-02T09:39:54;16.00;61.60
37412;DHT22;23278;52.110;6.050;2024-03-02T09:42:20;16.20;61.00
37412;DHT22;23278;52.110;6.050;2024-03-02T09:44:47;16.20;59.80
37412;DHT22;23278;52.110;6.050;2024-03-02T09:47:13;16.20;59.90
37412;DHT22;23278;52.110;6.050;2024-03-02T09:49:40;16.50;59.50
37412;DHT22;23278;52.110;6.050;2024-03-02T09:52:07;16.90;57.90
37412;DHT22;23278;52.110;6.050;2024-03-02T09:54:33;17.20;56.70
37412;DHT22;23278;52.110;6.050;2024-03-02T09:56:59;17.30;56.10
37412;DHT22;23278;52.110;6.050;2024-03-02T09:59:27;17.60;56.40
37412;DHT22;23278;52.110;6.050;2024-03-02T10:02:02;18.00;54.30
37412;DHT22;23278;52.110;6.050;2024-03-02T10:04:29;18.30;53.90
37412;DHT22;23278;52.110;6.050;2024-03-02T10:07:16;18.70;54.00
37412;DHT22;23278;52.110;6.050;2024-03-02T10:09:47;18.80;53.10
37412;DHT22;23278;52.110;6.050;2024-03-02T10:12:15;19.20;52.30
37412;DHT22;23278;52.110;6.050;2024-03-02T10:14:42;19.50;50.00
37412;DHT22;23278;52.110;6.050;2024-03-02T10:17:10;19.10;50.70
37412;DHT22;23278;52.110;6.050;2024-03-02T10:19:36;19.30;50.60
37412;DHT22;23278;52.110;6.050;2024-03-02T10:22:07;19.40;50.00
37412;DHT22;23278;52.110;6.050;2024-03-02T10:24:41;19.60;49.60
37412;DHT22;23278;52.110;6.050;2024-03-02T10:27:26;19.50;48.70
37412;DHT22;23278;52.110;6.050;2024-03-02T10:29:53;19.40;49.20
37412;DHT22;23278;52.110;6.050;2024-03-02T10:32:22;19.30;48.90
37412;DHT22;23278;52.110;6.050;2024-03-02T10:34:48;19.30;49.10
37412;DHT22;23278;52.110;6.050;2024-03-02T10:37:16;19.60;48.80
37412;DHT22;23278;52.110;6.050;2024-03-02T10:39:43;20.10;48.70
37412;DHT22;23278;52.110;6.050;2024-03-02T10:42:09;20.30;47.60
37412;DHT22;23278;52.110;6.050;2024-03-02T10:44:35;20.80;47.40
37412;DHT22;23278;52.110;6.050;2024-03-02T10:47:03;21.60;46.70
37412;DHT22;23278;52.110;6.050;2024-03-02T10:49:30;22.60;44.80
37412;DHT22;23278;52.110;6.050;2024-03-02T10:52:00;23.20;43.80
37412;DHT22;23278;52.110;6.050;2024-03-02T10:54:26;23.50;42.50
37412;DHT22;23278;52.110;6.050;2024-03-02T10:56:57;23.60;42.00
37412;DHT22;23278;52.110;6.050;2024-03-02T11:01:59;24.50;41.40
37412;DHT22;23278;52.110;6.050;2024-03-02T11:04:29;25.20;40.30
37412;DHT22;23278;52.110;6.050;2024-03-02T11:07:09;24.90;40.30
37412;DHT22;23278;52.110;6.050;2024-03-02T11:09:41;23.90;39.80
37412;DHT22;23278;52.110;6.050;2024-03-02T11:12:14;24.10;40.10
37412;DHT22;23278;52.110;6.050;2024-03-02T11:14:43;24.80;39.60
37412;DHT22;23278;52.110;6.050;2024-03-02T11:17:11;24.80;40.10
37412;DHT22;23278;52.110;6.050;2024-03-02T11:19:38;24.50;40.30
37412;DHT22;23278;52.110;6.050;2024-03-02T11:22:05;24.90;40.00
37412;DHT22;23278;52.110;6.050;2024-03-02T11:24:32;25.50;39.30
37412;DHT22;23278;52.110;6.050;2024-03-02T11:27:03;26.30;38.80
37412;DHT22;23278;52.110;6.050;2024-03-02T11:34:41;27.40;36.60
37412;DHT22;23278;52.110;6.050;2024-03-02T11:37:13;27.40;36.70
37412;DHT22;23278;52.110;6.050;2024-03-02T11:39:39;27.60;36.80
37412;DHT22;23278;52.110;6.050;2024-03-02T11:42:07;27.70;36.50
37412;DHT22;23278;52.110;6.050;2024-03-02T11:44:35;27.90;36.00
37412;DHT22;23278;52.110;6.050;2024-03-02T11:47:06;27.90;35.60
37412;DHT22;23278;52.110;6.050;2024-03-02T11:49:43;27.90;35.20
37412;DHT22;23278;52.110;6.050;2024-03-02T11:52:12;27.80;34.90
37412;DHT22;23278;52.110;6.050;2024-03-02T11:54:41;27.80;35.40
37412;DHT22;23278;52.110;6.050;2024-03-02T11:57:13;28.20;35.30
37412;DHT22;23278;52.110;6.050;2024-03-02T11:59:40;28.60;35.00
37412;DHT22;23278;52.110;6.050;2024-03-02T12:02:06;28.90;34.30
37412;DHT22;23278;52.110;6.050;2024-03-02T12:04:38;28.90;34.50
37412;DHT22;23278;52.110;6.050;2024-03-02T12:07:04;29.00;33.80
37412;DHT22;23278;52.110;6.050;2024-03-02T12:09:30;29.50;34.00
37412;DHT22;23278;52.110;6.050;2024-03-02T12:12:09;30.00;34.00
37412;DHT22;23278;52.110;6.050;2024-03-02T12:14:37;29.80;32.70
37412;DHT22;23278;52.110;6.050;2024-03-02T12:17:04;29.50;33.40
37412;DHT22;23278;52.110;6.050;2024-03-02T12:19:31;29.70;33.30
37412;DHT22;23278;52.110;6.050;2024-03-02T12:21:58;30.00;32.50
37412;DHT22;23278;52.110;6.050;2024-03-02T12:24:28;29.90;32.40
37412;DHT22;23278;52.110;6.050;2024-03-02T12:26:54;29.70;32.80
37412;DHT22;23278;52.110;6.050;2024-03-02T12:29:21;30.10;32.90
37412;DHT22;23278;52.110;6.050;2024-03-02T12:31:51;30.80;33.60
37412;DHT22;23278;52.110;6.050;2024-03-02T12:34:18;31.80;33.60
37412;DHT22;23278;52.110;6.050;2024-03-02T12:36:46;32.10;32.90
37412;DHT22;23278;52.110;6.050;2024-03-02T12:39:21;32.40;32.90
37412;DHT22;23278;52.110;6.050;2024-03-02T12:41:49;32.40;32.40
37412;DHT22;23278;52.110;6.050;2024-03-02T12:44:20;32.30;33.00
37412;DHT22;23278;52.110;6.050;2024-03-02T12:46:46;32.50;32.70
37412;DHT22;23278;52.110;6.050;2024-03-02T12:49:14;32.90;33.20
37412;DHT22;23278;52.110;6.050;2024-03-02T12:51:44;33.40;31.80
37412;DHT22;23278;52.110;6.050;2024-03-02T12:54:12;32.60;31.50
37412;DHT22;23278;52.110;6.050;2024-03-02T12:56:41;32.30;31.60
37412;DHT22;23278;52.110;6.050;2024-03-02T12:59:18;32.00;31.60
37412;DHT22;23278;52.110;6.050;2024-03-02T13:01:55;32.10;32.80
37412;DHT22;23278;52.110;6.050;2024-03-02T13:04:25;32.70;32.10
37412;DHT22;23278;52.110;6.050;2024-03-02T13:06:52;32.10;32.30
37412;DHT22;23278;52.110;6.050;2024-03-02T13:09:19;31.20;32.70
37412;DHT22;23278;52.110;6.050;2024-03-02T13:11:45;30.10;33.10
37412;DHT22;23278;52.110;6.050;2024-03-02T13:14:11;29.10;33.80
37412;DHT22;23278;52.110;6.050;2024-03-02T13:16:40;28.30;34.60
37412;DHT22;23278;52.110;6.050;2024-03-02T13:19:11;27.60;35.30
37412;DHT22;23278;52.110;6.050;2024-03-02T13:21:38;27.40;35.40
37412;DHT22;23278;52.110;6.050;2024-03-02T13:24:05;27.70;35.40
37412;DHT22;23278;52.110;6.050;2024-03-02T13:26:31;28.30;35.10
37412;DHT22;23278;52.110;6.050;2024-03-02T13:28:57;28.50;34.60
37412;DHT22;23278;52.110;6.050;2024-03-02T13:31:23;28.40;34.90
37412;DHT22;23278;52.110;6.050;2024-03-02T13:33:49;28.20;34.60
37412;DHT22;23278;52.110;6.050;2024-03-02T13:36:14;28.00;34.70
37412;DHT22;23278;52.110;6.050;2024-03-02T13:38:40;28.20;34.40
37412;DHT22;23278;52.110;6.050;2024-03-02T13:41:06;27.90;34.70
37412;DHT22;23278;52.110;6.050;2024-03-02T13:43:33;27.80;34.70
37412;DHT22;23278;52.110;6.050;2024-03-02T13:46:03;27.80;34.50
37412;DHT22;23278;52.110;6.050;2024-03-02T13:48:29;27.90;34.00
37412;DHT22;23278;52.110;6.050;2024-03-02T13:50:56;27.50;34.20
37412;DHT22;23278;52.110;6.050;2024-03-02T13:53:22;27.20;34.30
37412;DHT22;23278;52.110;6.050;2024-03-02T13:55:48;27.50;34.20
37412;DHT22;23278;52.110;6.050;2024-03-02T13:58:14;28.00;34.40
37412;DHT22;23278;52.110;6.050;2024-03-02T14:00:40;29.30;33.80
37412;DHT22;23278;52.110;6.050;2024-03-02T14:03:06;30.40;32.30
37412;DHT22;23278;52.110;6.050;2024-03-02T14:05:33;30.80;31.90
37412;DHT22;23278;52.110;6.050;2024-03-02T14:08:08;31.10;31.40
37412;DHT22;23278;52.110;6.050;2024-03-02T14:10:33;31.30;31.80
37412;DHT22;23278;52.110;6.050;2024-03-02T14:13:00;31.50;31.80
37412;DHT22;23278;52.110;6.050;2024-03-02T14:15:26;30.90;31.70
37412;DHT22;23278;52.110;6.050;2024-03-02T14:17:52;30.20;32.00
37412;DHT22;23278;52.110;6.050;2024-03-02T14:20:18;29.60;32.60
37412;DHT22;23278;52.110;6.050;2024-03-02T14:22:48;29.40;32.90
37412;DHT22;23278;52.110;6.050;2024-03-02T14:25:14;29.50;33.10
37412;DHT22;23278;52.110;6.050;2024-03-02T14:27:40;30.10;32.80
37412;DHT22;23278;52.110;6.050;2024-03-02T14:30:06;30.70;32.70
37412;DHT22;23278;52.110;6.050;2024-03-02T14:32:32;31.20;32.60
37412;DHT22;23278;52.110;6.050;2024-03-02T14:35:05;31.60;32.30
37412;DHT22;23278;52.110;6.050;2024-03-02T14:37:38;31.50;31.80
37412;DHT22;23278;52.110;6.050;2024-03-02T14:40:15;31.50;32.30
37412;DHT22;23278;52.110;6.050;2024-03-02T14:42:41;31.80;32.30
37412;DHT22;23278;52.110;6.050;2024-03-02T14:45:10;31.80;32.00
37412;DHT22;23278;52.110;6.050;2024-03-02T14:47:47;32.00;32.40
37412;DHT22;23278;52.110;6.050;2024-03-02T14:50:33;32.00;32.50
37412;DHT22;23278;52.110;6.050;2024-03-02T14:53:00;31.80;31.70
37412;DHT22;23278;52.110;6.050;2024-03-02T14:55:26;31.60;31.90
37412;DHT22;23278;52.110;6.050;2024-03-02T14:57:52;31.30;31.60
37412;DHT22;23278;52.110;6.050;2024-03-02T15:00:19;30.40;32.00
37412;DHT22;23278;52.110;6.050;2024-03-02T15:02:45;29.60;32.70
37412;DHT22;23278;52.110;6.050;2024-03-02T15:05:10;28.90;33.30
37412;DHT22;23278;52.110;6.050;2024-03-02T15:07:36;28.30;33.90
37412;DHT22;23278;52.110;6.050;2024-03-02T15:10:04;28.60;34.10
37412;DHT22;23278;52.110;6.050;2024-03-02T15:12:31;28.90;33.60
37412;DHT22;23278;52.110;6.050;2024-03-02T15:14:57;29.00;33.70
37412;DHT22;23278;52.110;6.050;2024-03-02T15:17:23;29.00;33.50
37412;DHT22;23278;52.110;6.050;2024-03-02T15:19:49;28.90;33.50
37412;DHT22;23278;52.110;6.050;2024-03-02T15:22:15;29.00;33.90
37412;DHT22;23278;52.110;6.050;2024-03-02T15:24:41;28.50;33.90
37412;DHT22;23278;52.110;6.050;2024-03-02T15:27:06;27.10;34.60
37412;DHT22;23278;52.110;6.050;2024-03-02T15:29:34;25.70;35.90
37412;DHT22;23278;52.110;6.050;2024-03-02T15:32:00;24.40;37.10
37412;DHT22;23278;52.110;6.050;2024-03-02T15:34:27;23.40;38.40
37412;DHT22;23278;52.110;6.050;2024-03-02T15:36:53;22.70;39.40
37412;DHT22;23278;52.110;6.050;2024-03-02T15:39:18;22.00;40.30
37412;DHT22;23278;52.110;6.050;2024-03-02T15:41:45;21.50;41.30
37412;DHT22;23278;52.110;6.050;2024-03-02T15:44:11;21.00;42.20
37412;DHT22;23278;52.110;6.050;2024-03-02T15:46:37;20.40;43.30
37412;DHT22;23278;52.110;6.050;2024-03-02T15:49:03;19.90;44.00
37412;DHT22;23278;52.110;6.050;2024-03-02T15:51:31;19.50;44.70